Ana Sayfa
METAR-TAF:

METAR-TAF

Havaalanları :

Nevşehir Kapadokya Havalimanı

Nevşehir, Türkiye

Enlem: 38-46-12N, Boylam: 034-32-30E, yükseklik: 945 m

Güncel hava durumu gözlemi

Rapor saat 05:20 UTC de 43 dakika önce yapıldı.
Rüzgar güneydoğudan 5 kt
Sıcaklık 0°C
Nem 93%
Basınç 1025 hPa
Görüş mesafesi: 6000 m

METAR: LTAZ 180520Z 13005KT 6000 NSC 00/M01 Q1025 RMK RWY29 15004KT

Saat: 09:03 (06:03 UTC)

Tahmin

Rapor saat 04:40 UTC de 1 saat ve 23 dakika önce yapıldı.
Ayın 18'si saat 06 UTC'den ayın 19'si saat 06 UTC'ye kadar geçerli Tahmin
Rüzgar değişken yönden 2 kt
Görüş mesafesi 10 km veya daha fazla
1500 m altında bulut yok ve kümülonimbus yok

TAF: LTAZ 180440Z 1806/1906 VRB02KT CAVOK

4.000'den fazla havaalanı için hava durumu gözlemleri ve tahminleri (METAR ve TAF raporları).

Kullanılabilir istasyonlar harita üzerinde sarı ve kırmızı noktalarla gösterilir.

İstasyonun adını görmek için fareyi noktanın üzerinde gezdirin.

Sonrasında hava gözlem ve tahminlerini görmek için tıklayın.

Haritayı değiştirmek için: yaklaştırmak için siyah artı işaretli yeşil düğmeye ve uzaklaştırmak için de eksi işaretli düğmeye hızla tıklayın; bitişik haritalar için yeşil okları kullanın.


METAR-TAF: